Swanscombe, United Kingdom
Current Conditions -  °F | °C
As of 5:50 PM on Friday 19 Dec 2014 (Local Time) from EGLC Reporting Station
Clear Clear  
Wind Chill:   Ceiling: Unl
Heat Index:   Visibility: 6mi
Dew Point:   Wind: 14mph
Humidity: 66%   Direction: 260°W
Pressure: 30.12"   Gusts: 25mph
Location:  51.45°N, 0.31°E
Report Text: EGLC 191750Z 26012G22KT CAVOK 08/02 Q1020
Loading
Personal Weather Stations






























Interactive Weather Map New forecast layout! Learn more

10-Day Weather Forecast

Advertisements
Track Severe Weather on mobile